Flight Track Log - Related Links

Times and Time Zones

All times are in EDT time to prevent confusion due to time zone crossing. See the SWA397 flight status page for this flight to view local times or setup timezone preferences in your user account.

Time Position Orientation Groundspeed Altitude Reporting Facility
EDT Latitude Longitude Course Direction KTS MPH feet Rate Location/Type
Thu 03:19:12 PM 36.0767 -115.1706 267° West 185 213 3,100  Level Los Angeles Center
Thu 03:20:00 PM 36.0747 -115.2219 267° West 198 228 4,200 1,761 Climbing Los Angeles Center
Thu 03:21:01 PM 36.0300 -115.2739 223° Southwest 253 291 6,300 1,672 Climbing Los Angeles Center
Thu 03:22:02 PM 35.9528 -115.2964 193° South 278 320 7,600 2,017 Climbing Los Angeles Center
Thu 03:22:57 PM 35.8842 -115.2686 162° South 289 333 10,200 2,500 Climbing Los Angeles Center
Thu 03:23:14 PM 35.8653 -115.2483 139° Southeast 285 328 10,600 1,562 Climbing Los Angeles Center
Thu 03:24:10 PM 35.8381 -115.1456 108° East 371 427 12,100 2,157 Climbing Los Angeles Center
Thu 03:26:00 PM 35.8320 -114.8984 84° East  Level FlightAware Approximate
Thu 03:27:16 PM 35.8553 -114.7114 84° East 421 484 19,300  Level Albuquerque Center
Thu 03:28:18 PM 35.8681 -114.5617 84° East 434 499 21,500 1,935 Climbing Albuquerque Center
Thu 03:29:20 PM 35.8817 -114.4089 84° East 444 511 23,300 1,610 Climbing Albuquerque Center
Thu 03:30:21 PM 35.8861 -114.2522 88° East 457 526 24,800 1,603 Climbing Albuquerque Center
Thu 03:31:31 PM 35.8119 -114.0886 119° Southeast 452 520 26,800 1,545 Climbing Los Angeles Center
Thu 03:32:33 PM 35.7511 -113.9489 118° Southeast 458 527 28,200 1,248 Climbing Los Angeles Center
Thu 03:33:36 PM 35.6850 -113.8072 120° Southeast 465 535 29,400 1,296 Climbing Los Angeles Center
Thu 03:34:38 PM 35.6203 -113.6675 120° Southeast 471 542 30,900 1,645 Climbing Los Angeles Center
Thu 03:35:40 PM 35.5564 -113.5294 120° Southeast 467 537 32,800 1,548 Climbing Los Angeles Center
Thu 03:36:42 PM 35.4811 -113.3678 120° Southeast 461 531 34,100 1,258 Climbing Los Angeles Center
Thu 03:37:44 PM 35.4178 -113.2328 120° Southeast 456 525 35,400 968 Climbing Los Angeles Center
Thu 03:38:46 PM 35.3556 -113.1000 120° Southeast 452 520 36,100 768 Climbing Los Angeles Center
Thu 03:39:49 PM 35.2864 -112.9547 120° Southeast 456 525 37,000 474 Climbing Los Angeles Center
Thu 03:40:40 PM 35.2314 -112.8400 120° Southeast 465 535 37,000  Level Albuquerque Center
Thu 03:41:42 PM 35.1683 -112.7069 120° Southeast 462 532 37,000  Level Albuquerque Center
Thu 03:42:43 PM 35.1053 -112.5742 120° Southeast 457 526 37,000  Level Albuquerque Center
Thu 03:43:45 PM 35.0292 -112.4158 120° Southeast 455 524 37,000  Level Albuquerque Center
Thu 03:44:47 PM 34.9653 -112.2850 121° Southeast 453 521 37,000  Level Albuquerque Center
Thu 03:45:49 PM 34.9028 -112.1542 120° Southeast 450 518 37,000  Level Albuquerque Center
Thu 03:46:50 PM 34.8392 -112.0247 121° Southeast 449 517 37,000  Level Albuquerque Center
Thu 03:47:52 PM 34.7764 -111.8953 121° Southeast 447 514 37,000  Level Albuquerque Center
Thu 03:48:54 PM 34.7072 -111.7542 121° Southeast 447 514 37,000  Level Albuquerque Center
Thu 03:49:56 PM 34.6442 -111.6244 121° Southeast 446 513 37,000  Level Albuquerque Center
Thu 03:50:57 PM 34.5811 -111.4950 121° Southeast 444 511 37,000  Level Albuquerque Center
Thu 03:51:59 PM 34.5178 -111.3669 121° Southeast 442 509 37,000  Level Albuquerque Center
Thu 03:53:01 PM 34.4544 -111.2386 121° Southeast 441 507 37,000  Level Albuquerque Center
Thu 03:54:03 PM 34.3781 -111.0867 121° Southeast 440 506 37,000  Level Albuquerque Center
Thu 03:55:04 PM 34.3150 -110.9594 121° Southeast 439 505 37,000  Level Albuquerque Center
Thu 03:56:06 PM 34.2503 -110.8308 121° Southeast 443 510 37,000  Level Albuquerque Center
Thu 03:57:08 PM 34.1881 -110.7092 122° Southeast 446 513 37,000  Level Albuquerque Center
Thu 03:58:09 PM 34.1103 -110.5961 130° Southeast 442 509 37,000  Level Albuquerque Center
Thu 03:59:11 PM 34.0306 -110.4844 131° Southeast 442 509 37,000  Level Albuquerque Center
Thu 04:00:13 PM 33.9372 -110.3464 129° Southeast 444 511 37,000  Level Albuquerque Center
Thu 04:01:15 PM 33.8592 -110.2342 130° Southeast 444 511 37,000  Level Albuquerque Center
Thu 04:02:16 PM 33.7808 -110.1197 129° Southeast 445 512 37,000  Level Albuquerque Center
Thu 04:03:18 PM 33.7011 -110.0042 130° Southeast 451 519 37,000  Level Albuquerque Center
Thu 04:04:20 PM 33.6217 -109.8881 129° Southeast 454 522 37,000  Level Albuquerque Center
Thu 04:05:22 PM 33.5258 -109.7489 130° Southeast 455 524 37,000  Level Albuquerque Center
Thu 04:06:23 PM 33.4447 -109.6333 130° Southeast 456 525 37,000  Level Albuquerque Center
Thu 04:07:25 PM 33.3633 -109.5189 130° Southeast 456 525 37,000  Level Albuquerque Center
Thu 04:08:27 PM 33.2825 -109.4061 131° Southeast 453 521 37,000  Level Albuquerque Center
Thu 04:09:28 PM 33.2028 -109.2939 130° Southeast 449 517 37,000  Level Albuquerque Center
Thu 04:10:30 PM 33.1233 -109.1811 130° Southeast 449 517 37,000  Level Albuquerque Center
Thu 04:11:32 PM 33.0358 -109.0447 127° Southeast 452 520 37,000  Level Albuquerque Center
Thu 04:12:34 PM 32.9589 -108.9253 127° Southeast 456 525 37,000  Level Albuquerque Center
Thu 04:13:35 PM 32.8781 -108.8100 130° Southeast 455 524 37,000  Level Albuquerque Center
Thu 04:14:37 PM 32.7900 -108.6736 128° Southeast 464 534 37,000  Level Albuquerque Center
Thu 04:15:39 PM 32.7178 -108.5542 126° Southeast 454 522 37,000  Level Albuquerque Center
Thu 04:16:41 PM 32.6456 -108.4353 126° Southeast 448 516 37,000  Level Albuquerque Center
Thu 04:17:43 PM 32.5847 -108.3078 119° Southeast 449 517 37,000  Level Albuquerque Center
Thu 04:18:45 PM 32.5347 -108.1731 114° Southeast 451 519 37,000  Level Albuquerque Center
Thu 04:19:46 PM 32.4758 -108.0092 113° Southeast 454 522 37,000  Level Albuquerque Center
Thu 04:20:48 PM 32.4283 -107.8864 115° Southeast 455 524 37,000  Level Albuquerque Center
Thu 04:21:50 PM 32.3781 -107.7486 113° Southeast 458 527 37,000  Level Albuquerque Center
Thu 04:22:52 PM 32.3514 -107.5683 100° East 466 536 37,000  Level Albuquerque Center
Thu 04:23:54 PM 32.3331 -107.4378 99° East 462 532 37,000  Level Albuquerque Center
Thu 04:24:56 PM 32.3075 -107.2600 100° East 462 532 37,000  Level Albuquerque Center
Thu 04:25:57 PM 32.2900 -107.1114 98° East 462 532 37,000  Level Albuquerque Center
Thu 04:26:59 PM 32.2656 -106.9506 100° East 463 533 37,000  Level Albuquerque Center
Thu 04:28:01 PM 32.2444 -106.8042 100° East 458 527 37,000  Level Albuquerque Center
Thu 04:29:03 PM 32.2228 -106.6583 100° East 455 524 37,000  Level Albuquerque Center
Thu 04:30:05 PM 32.2008 -106.5122 100° East 454 522 37,000  Level Albuquerque Center
Thu 04:31:06 PM 32.1789 -106.3675 100° East 451 519 37,000  Level Albuquerque Center
Thu 04:32:08 PM 32.1569 -106.2225 100° East 451 519 37,000  Level Albuquerque Center
Thu 04:33:10 PM 32.1297 -106.0508 101° East 446 513 37,000  Level Albuquerque Center
Thu 04:34:12 PM 32.1100 -105.9200 100° East 444 511 37,000  Level Albuquerque Center
Thu 04:35:14 PM 32.0875 -105.7767 100° East 445 512 37,000  Level Albuquerque Center
Thu 04:36:16 PM 32.0653 -105.6342 100° East 443 510 37,000  Level Albuquerque Center
Thu 04:37:17 PM 32.0381 -105.4617 101° East 446 513 37,000  Level Albuquerque Center
Thu 04:38:19 PM 32.0153 -105.3192 101° East 443 510 37,000  Level Albuquerque Center
Thu 04:39:21 PM 31.9925 -105.1767 101° East 442 509 37,000  Level Albuquerque Center
Thu 04:40:23 PM 31.9694 -105.0331 101° East 445 512 37,000  Level Albuquerque Center
Thu 04:41:24 PM 31.9533 -104.8856 97° East 453 521 37,000  Level Albuquerque Center
Thu 04:42:26 PM 31.9675 -104.7344 84° East 464 534 37,000  Level Albuquerque Center
Thu 04:43:28 PM 31.9778 -104.5811 85° East 469 540 37,000  Level Albuquerque Center
Thu 04:44:30 PM 31.9875 -104.4303 86° East 465 535 37,000  Level Albuquerque Center
Thu 04:45:31 PM 31.9856 -104.2497 91° East 459 528 37,000  Level Albuquerque Center
Thu 04:46:33 PM 31.9839 -104.0986 91° East 461 531 37,000  Level Albuquerque Center
Thu 04:47:35 PM 31.9800 -103.9608 92° East 465 535 37,000  Level Albuquerque Center
Thu 04:48:37 PM 31.9772 -103.8114 91° East 462 532 37,000  Level Albuquerque Center
Thu 04:49:38 PM 31.9742 -103.6333 91° East 457 526 37,000  Level Albuquerque Center
Thu 04:50:40 PM 31.9703 -103.4836 92° East 458 527 37,000  Level Albuquerque Center
Thu 04:51:42 PM 31.9664 -103.3350 92° East 457 526 37,000  Level Albuquerque Center
Thu 04:52:44 PM 31.9622 -103.1853 92° East 458 527 37,000  Level Albuquerque Center
Thu 04:53:25 PM 31.9419 -103.0706 102° East 461 531 37,000  Level Fort Worth Center
Thu 04:54:25 PM 31.9044 -102.9264 107° East 461 531 37,000  Level Fort Worth Center
Thu 04:55:25 PM 31.8689 -102.7822 106° East 461 531 37,000  Level Fort Worth Center
Thu 04:55:49 PM 31.8539 -102.7256 107° East 458 527 37,000  Level Albuquerque Center
Thu 04:56:51 PM 31.8175 -102.5811 106° East 461 531 37,000  Level Albuquerque Center
Thu 04:57:25 PM 31.8067 -102.5244 103° East 461 531 37,000  Level Fort Worth Center
Thu 04:58:25 PM 31.7614 -102.3511 107° East 466 536 37,000  Level Fort Worth Center
Thu 04:59:25 PM 31.7253 -102.2075 106° East 466 536 37,000  Level Fort Worth Center
Thu 05:00:25 PM 31.6908 -102.0642 106° East 466 536 37,000  Level Fort Worth Center
Thu 05:01:25 PM 31.6600 -101.9356 106° East 466 536 37,000  Level Fort Worth Center
Thu 05:02:25 PM 31.6214 -101.7922 108° East 466 536 37,000  Level Fort Worth Center
Thu 05:03:01 PM 31.6014 -101.7167 107° East 452 520 37,000  Level Houston Center
Thu 05:04:03 PM 31.5653 -101.5742 107° East 454 522 37,000  Level Houston Center
Thu 05:04:25 PM 31.5514 -101.5111 104° East 459 528 37,000  Level Fort Worth Center
Thu 05:05:25 PM 31.5144 -101.3633 106° East 459 528 37,000  Level Fort Worth Center
Thu 05:06:25 PM 31.4853 -101.2256 104° East 459 528 37,000  Level Fort Worth Center
Thu 05:07:25 PM 31.4436 -101.0803 109° East 458 527 37,000  Level Fort Worth Center
Thu 05:08:25 PM 31.4103 -100.9353 105° East 458 527 37,000  Level Fort Worth Center
Thu 05:09:25 PM 31.3728 -100.7806 106° East 463 533 37,000  Level Fort Worth Center
Thu 05:10:16 PM 31.3456 -100.6675 106° East 464 534 37,000  Level Houston Center
Thu 05:11:18 PM 31.3094 -100.5222 106° East 465 535 37,000  Level Houston Center
Thu 05:12:20 PM 31.2800 -100.3747 103° East 466 536 37,000  Level Houston Center
Thu 05:13:22 PM 31.2514 -100.2108 102° East 465 535 37,000  Level Houston Center
Thu 05:14:25 PM 31.2233 -100.0492 101° East 464 534 37,000  Level Houston Center
Thu 05:15:27 PM 31.1978 -99.9008 101° East 464 534 37,000  Level Houston Center
Thu 05:16:29 PM 31.1722 -99.7531 101° East 463 533 37,000  Level Houston Center
Thu 05:17:31 PM 31.1467 -99.6058 101° East 463 533 37,000  Level Houston Center
Thu 05:18:33 PM 31.1192 -99.4569 102° East 469 540 37,000  Level Houston Center
Thu 05:19:35 PM 31.0925 -99.3078 102° East 470 541 37,000  Level Houston Center
Thu 05:20:37 PM 31.0617 -99.1417 102° East 469 540 37,000  Level Houston Center
Thu 05:21:39 PM 31.0339 -98.9908 102° East 471 542 37,000  Level Houston Center
Thu 05:22:41 PM 31.0067 -98.8408 102° East 471 542 37,000  Level Houston Center
Thu 05:23:44 PM 30.9775 -98.6914 103° East 469 540 37,000  Level Houston Center
Thu 05:24:46 PM 30.9469 -98.5186 102° East 465 535 37,000  Level Houston Center
Thu 05:25:48 PM 30.9181 -98.3700 103° East 465 535 37,000  Level Houston Center
Thu 05:26:50 PM 30.8892 -98.2222 103° East 464 534 37,000  Level Houston Center
Thu 05:27:52 PM 30.8611 -98.0736 102° East 467 537 37,000  Level Houston Center
Thu 05:28:54 PM 30.8333 -97.9239 102° East 469 540 37,000  Level Houston Center
Thu 05:29:56 PM 30.8036 -97.7750 103° East 471 542 37,000  Level Houston Center
Thu 05:30:58 PM 30.7694 -97.6022 103° East 469 540 37,000  Level Houston Center
Thu 05:32:00 PM 30.7392 -97.4517 103° East 476 548 37,000  Level Houston Center
Thu 05:33:02 PM 30.7097 -97.2997 103° East 484 557 37,000  Level Houston Center
Thu 05:34:05 PM 30.6808 -97.1478 102° East 485 558 37,000 -1,008 Level Houston Center
Thu 05:35:07 PM 30.6511 -96.9958 103° East 484 557 34,900 -2,661 Descending Houston Center
Thu 05:36:09 PM 30.6139 -96.8153 103° East 490 564 31,500 -3,484 Descending Houston Center
Thu 05:37:11 PM 30.5808 -96.6647 104° East 480 552 27,700 -3,871 Descending Houston Center
Thu 05:38:13 PM 30.4925 -96.5500 132° Southeast 469 540 23,500 -3,677 Descending Houston Center
Thu 05:39:15 PM 30.4056 -96.4458 134° Southeast 448 516 20,100 -3,484 Descending Houston Center
Thu 05:40:17 PM 30.3267 -96.3506 134° Southeast 413 475 16,300 -4,021 Descending Houston Center
Thu 05:40:49 PM 30.2781 -96.2919 134° Southeast 397 457 13,800 -3,774 Descending Houston Center
Thu 05:41:19 PM 30.2489 -96.2578 135° Southeast 401 461 12,400 -2,754 Descending Houston Center
Thu 05:41:50 PM 30.1994 -96.2064 138° Southeast 376 433 11,000 -1,429 Descending Houston Center
Thu 05:42:22 PM 30.1661 -96.1844 150° Southeast 371 427 10,900  Descending Houston Center
Thu 05:42:51 PM 30.1111 -96.1561 156° South 336 387 11,000  Climbing Houston Center
Thu 05:43:24 PM 30.0647 -96.1306 155° Southeast 341 392 10,900 -393 Descending Houston Center
Thu 05:43:52 PM 30.0292 -96.1050 148° Southeast 335 386 10,600 -871 Descending Houston Center
Thu 05:44:26 PM 29.9869 -96.0708 145° Southeast 337 388 10,000 -590 Descending Houston Center
Thu 05:44:53 PM 29.9481 -96.0394 145° Southeast 332 382 10,000 -97 Level Houston Center
Thu 05:45:28 PM 29.9078 -96.0033 142° Southeast 332 382 9,900 -98 Descending Houston Center
Thu 05:45:54 PM 29.8994 -95.9631 103° East 288 331 9,900 -484 Level Houston Center
Thu 05:46:30 PM 29.8908 -95.9117 101° East 290 334 9,400 -984 Descending Houston Center
Thu 05:46:55 PM 29.8831 -95.8711 102° East 286 329 8,900 -968 Descending Houston Center
Thu 05:47:32 PM 29.8742 -95.8233 102° East 284 327 8,400 -984 Descending Houston Center
Thu 05:47:56 PM 29.8669 -95.7839 102° East 280 322 7,900 -968 Descending Houston Center
Thu 05:48:34 PM 29.8578 -95.7367 103° East 279 321 7,400 -968 Descending Houston Center
Thu 05:48:58 PM 29.8483 -95.6919 104° East 275 316 6,900 -1,258 Descending Houston Center
Thu 05:49:36 PM 29.8353 -95.6539 112° Southeast 273 314 6,100 -1,475 Descending Houston Center
Thu 05:49:59 PM 29.8181 -95.6114 115° Southeast 272 313 5,400 -1,065 Descending Houston Center
Thu 05:50:38 PM 29.8036 -95.5753 115° Southeast 272 313 5,000 -590 Descending Houston Center
Thu 05:51:00 PM 29.7861 -95.5356 117° Southeast 257 296 4,800 -667 Descending Houston Center
Thu 05:51:41 PM 29.7675 -95.4881 114° Southeast 256 295 4,300 -968 Descending Houston Center
Thu 05:52:02 PM 29.7564 -95.4622 116° Southeast 236 272 3,800 -1,258 Descending Houston Center
Thu 05:52:43 PM 29.7400 -95.4217 115° Southeast 238 274 3,000 -1,180 Descending Houston Center
Thu 05:53:03 PM 29.7294 -95.3981 117° Southeast 226 260 2,600 -1,065 Descending Houston Center
Thu 05:53:45 PM 29.7147 -95.3597 114° Southeast 227 261 1,900 -1,082 Descending Houston Center
Thu 05:54:04 PM 29.6992 -95.3439 139° Southeast 179 206 1,500 -871 Descending Houston Center
Thu 05:54:47 PM 29.6819 -95.3222 132° Southeast 189 217 1,000 -787 Descending Houston Center
Thu 05:55:05 PM 29.6708 -95.3089 134° Southeast 141 162 700 -774 Descending Houston Center
Thu 05:55:49 PM 29.6547 -95.2906 135° Southeast 161 185 200 -682 Descending Houston Center
Thu 05:57:00 PM 29.6454 -95.2789 115° Southeast  Level Estimated

Login

Don't have an account? Register now (free) for customized features, flight alerts, and more!